sensor_id;sensor_type;location;lat;lon;timestamp;P1;durP1;ratioP1;P2;durP2;ratioP2
67442;SDS011;54311;51.726;5.154;2023-04-01T00:00:21;9.25;;;8.55;;
67442;SDS011;54311;51.726;5.154;2023-04-01T00:02:46;9.00;;;8.20;;
67442;SDS011;54311;51.726;5.154;2023-04-01T00:05:12;12.27;;;8.43;;
67442;SDS011;54311;51.726;5.154;2023-04-01T00:07:38;9.60;;;8.68;;
67442;SDS011;54311;51.726;5.154;2023-04-01T00:10:07;9.30;;;8.50;;
67442;SDS011;54311;51.726;5.154;2023-04-01T00:12:35;9.18;;;8.40;;
67442;SDS011;54311;51.726;5.154;2023-04-01T00:15:02;9.82;;;8.85;;
67442;SDS011;54311;51.726;5.154;2023-04-01T00:17:28;9.70;;;8.80;;
67442;SDS011;54311;51.726;5.154;2023-04-01T00:19:57;9.75;;;8.98;;
67442;SDS011;54311;51.726;5.154;2023-04-01T00:22:25;10.43;;;9.55;;
67442;SDS011;54311;51.726;5.154;2023-04-01T00:24:51;10.05;;;9.10;;
67442;SDS011;54311;51.726;5.154;2023-04-01T00:27:16;11.57;;;9.98;;
67442;SDS011;54311;51.726;5.154;2023-04-01T00:29:42;10.60;;;9.50;;
67442;SDS011;54311;51.726;5.154;2023-04-01T00:32:08;10.65;;;9.85;;
67442;SDS011;54311;51.726;5.154;2023-04-01T00:34:34;11.75;;;10.57;;
67442;SDS011;54311;51.726;5.154;2023-04-01T00:36:59;11.15;;;10.18;;
67442;SDS011;54311;51.726;5.154;2023-04-01T00:39:25;11.82;;;10.38;;
67442;SDS011;54311;51.726;5.154;2023-04-01T00:41:51;10.73;;;9.57;;
67442;SDS011;54311;51.726;5.154;2023-04-01T00:44:18;12.55;;;9.65;;
67442;SDS011;54311;51.726;5.154;2023-04-01T00:46:45;9.80;;;8.85;;
67442;SDS011;54311;51.726;5.154;2023-04-01T00:49:10;11.75;;;8.77;;
67442;SDS011;54311;51.726;5.154;2023-04-01T00:51:36;12.73;;;8.55;;
67442;SDS011;54311;51.726;5.154;2023-04-01T00:54:03;9.57;;;8.68;;
67442;SDS011;54311;51.726;5.154;2023-04-01T00:56:30;10.40;;;8.05;;
67442;SDS011;54311;51.726;5.154;2023-04-01T00:59:18;9.02;;;7.47;;
67442;SDS011;54311;51.726;5.154;2023-04-01T01:01:46;9.88;;;6.32;;
67442;SDS011;54311;51.726;5.154;2023-04-01T01:04:25;9.93;;;6.53;;
67442;SDS011;54311;51.726;5.154;2023-04-01T01:15:22;8.93;;;7.22;;
67442;SDS011;54311;51.726;5.154;2023-04-01T01:28:45;8.38;;;6.78;;
67442;SDS011;54311;51.726;5.154;2023-04-01T01:39:02;7.70;;;5.95;;
67442;SDS011;54311;51.726;5.154;2023-04-01T01:41:28;6.85;;;6.15;;
67442;SDS011;54311;51.726;5.154;2023-04-01T01:43:54;6.13;;;5.57;;
67442;SDS011;54311;51.726;5.154;2023-04-01T01:46:22;7.90;;;6.47;;
67442;SDS011;54311;51.726;5.154;2023-04-01T01:48:49;11.35;;;10.18;;
67442;SDS011;54311;51.726;5.154;2023-04-01T01:51:15;9.07;;;7.57;;
67442;SDS011;54311;51.726;5.154;2023-04-01T01:53:42;11.50;;;7.57;;
67442;SDS011;54311;51.726;5.154;2023-04-01T01:56:07;8.88;;;7.43;;
67442;SDS011;54311;51.726;5.154;2023-04-01T01:58:35;8.27;;;6.60;;
67442;SDS011;54311;51.726;5.154;2023-04-01T02:01:06;7.32;;;6.63;;
67442;SDS011;54311;51.726;5.154;2023-04-01T02:03:34;7.90;;;6.50;;
67442;SDS011;54311;51.726;5.154;2023-04-01T02:06:01;7.60;;;6.50;;
67442;SDS011;54311;51.726;5.154;2023-04-01T02:08:32;7.80;;;7.10;;
67442;SDS011;54311;51.726;5.154;2023-04-01T02:11:02;8.30;;;7.55;;
67442;SDS011;54311;51.726;5.154;2023-04-01T02:13:37;10.45;;;7.80;;
67442;SDS011;54311;51.726;5.154;2023-04-01T02:16:32;9.88;;;8.55;;
67442;SDS011;54311;51.726;5.154;2023-04-01T02:19:00;9.73;;;7.97;;
67442;SDS011;54311;51.726;5.154;2023-04-01T02:21:27;14.32;;;8.45;;
67442;SDS011;54311;51.726;5.154;2023-04-01T02:23:56;8.98;;;8.02;;
67442;SDS011;54311;51.726;5.154;2023-04-01T02:26:23;10.15;;;7.03;;
67442;SDS011;54311;51.726;5.154;2023-04-01T02:28:50;7.70;;;7.03;;
67442;SDS011;54311;51.726;5.154;2023-04-01T02:31:17;9.43;;;8.00;;
67442;SDS011;54311;51.726;5.154;2023-04-01T02:33:42;8.88;;;7.97;;
67442;SDS011;54311;51.726;5.154;2023-04-01T02:36:10;11.98;;;8.13;;
67442;SDS011;54311;51.726;5.154;2023-04-01T02:38:37;9.77;;;8.10;;
67442;SDS011;54311;51.726;5.154;2023-04-01T02:41:03;10.57;;;8.23;;
67442;SDS011;54311;51.726;5.154;2023-04-01T02:43:30;9.95;;;8.40;;
67442;SDS011;54311;51.726;5.154;2023-04-01T02:45:55;10.98;;;7.55;;
67442;SDS011;54311;51.726;5.154;2023-04-01T02:48:20;8.40;;;7.60;;
67442;SDS011;54311;51.726;5.154;2023-04-01T02:50:46;10.88;;;7.32;;
67442;SDS011;54311;51.726;5.154;2023-04-01T02:53:11;8.82;;;7.95;;
67442;SDS011;54311;51.726;5.154;2023-04-01T02:55:36;8.60;;;7.80;;
67442;SDS011;54311;51.726;5.154;2023-04-01T02:58:02;8.63;;;7.82;;
67442;SDS011;54311;51.726;5.154;2023-04-01T03:00:27;8.73;;;8.00;;
67442;SDS011;54311;51.726;5.154;2023-04-01T03:02:53;9.43;;;8.52;;
67442;SDS011;54311;51.726;5.154;2023-04-01T03:05:18;9.88;;;8.98;;
67442;SDS011;54311;51.726;5.154;2023-04-01T03:07:44;10.55;;;9.55;;
67442;SDS011;54311;51.726;5.154;2023-04-01T03:10:10;12.30;;;10.90;;
67442;SDS011;54311;51.726;5.154;2023-04-01T03:12:35;11.38;;;10.48;;
67442;SDS011;54311;51.726;5.154;2023-04-01T03:15:01;13.60;;;11.98;;
67442;SDS011;54311;51.726;5.154;2023-04-01T03:17:26;12.85;;;11.55;;
67442;SDS011;54311;51.726;5.154;2023-04-01T03:19:51;14.85;;;11.50;;
67442;SDS011;54311;51.726;5.154;2023-04-01T03:22:17;14.77;;;12.65;;
67442;SDS011;54311;51.726;5.154;2023-04-01T03:24:45;15.25;;;13.20;;
67442;SDS011;54311;51.726;5.154;2023-04-01T03:27:13;14.73;;;13.13;;
67442;SDS011;54311;51.726;5.154;2023-04-01T03:29:39;15.43;;;13.82;;
67442;SDS011;54311;51.726;5.154;2023-04-01T03:32:05;16.00;;;13.57;;
67442;SDS011;54311;51.726;5.154;2023-04-01T03:34:30;16.98;;;12.32;;
67442;SDS011;54311;51.726;5.154;2023-04-01T03:36:55;14.40;;;11.68;;
67442;SDS011;54311;51.726;5.154;2023-04-01T03:39:21;14.82;;;11.32;;
67442;SDS011;54311;51.726;5.154;2023-04-01T03:41:47;14.85;;;11.13;;
67442;SDS011;54311;51.726;5.154;2023-04-01T03:44:12;15.63;;;12.13;;
67442;SDS011;54311;51.726;5.154;2023-04-01T03:46:38;15.35;;;11.00;;
67442;SDS011;54311;51.726;5.154;2023-04-01T03:49:06;13.68;;;10.85;;
67442;SDS011;54311;51.726;5.154;2023-04-01T03:51:36;16.48;;;10.98;;
67442;SDS011;54311;51.726;5.154;2023-04-01T03:54:02;12.18;;;9.77;;
67442;SDS011;54311;51.726;5.154;2023-04-01T03:56:27;13.60;;;9.57;;
67442;SDS011;54311;51.726;5.154;2023-04-01T03:58:53;11.20;;;9.75;;
67442;SDS011;54311;51.726;5.154;2023-04-01T04:01:19;13.43;;;9.20;;
67442;SDS011;54311;51.726;5.154;2023-04-01T04:03:46;14.00;;;9.48;;
67442;SDS011;54311;51.726;5.154;2023-04-01T04:06:15;10.10;;;8.93;;
67442;SDS011;54311;51.726;5.154;2023-04-01T04:08:42;10.45;;;8.90;;
67442;SDS011;54311;51.726;5.154;2023-04-01T04:11:07;9.82;;;7.68;;
67442;SDS011;54311;51.726;5.154;2023-04-01T04:13:33;8.57;;;7.75;;
67442;SDS011;54311;51.726;5.154;2023-04-01T04:15:58;9.80;;;7.88;;
67442;SDS011;54311;51.726;5.154;2023-04-01T04:18:24;7.68;;;7.13;;
67442;SDS011;54311;51.726;5.154;2023-04-01T04:20:49;8.48;;;7.68;;
67442;SDS011;54311;51.726;5.154;2023-04-01T04:23:16;10.55;;;7.75;;
67442;SDS011;54311;51.726;5.154;2023-04-01T04:25:52;8.85;;;8.10;;
67442;SDS011;54311;51.726;5.154;2023-04-01T04:28:21;10.15;;;9.15;;
67442;SDS011;54311;51.726;5.154;2023-04-01T04:30:47;10.05;;;9.20;;
67442;SDS011;54311;51.726;5.154;2023-04-01T04:33:12;10.15;;;9.25;;
67442;SDS011;54311;51.726;5.154;2023-04-01T04:35:37;10.88;;;9.77;;
67442;SDS011;54311;51.726;5.154;2023-04-01T04:38:03;12.02;;;10.82;;
67442;SDS011;54311;51.726;5.154;2023-04-01T04:40:28;13.00;;;11.73;;
67442;SDS011;54311;51.726;5.154;2023-04-01T04:42:53;13.25;;;11.95;;
67442;SDS011;54311;51.726;5.154;2023-04-01T04:45:19;14.27;;;12.65;;
67442;SDS011;54311;51.726;5.154;2023-04-01T04:47:44;16.00;;;13.50;;
67442;SDS011;54311;51.726;5.154;2023-04-01T04:50:10;14.40;;;13.00;;
67442;SDS011;54311;51.726;5.154;2023-04-01T04:52:36;12.60;;;11.60;;
67442;SDS011;54311;51.726;5.154;2023-04-01T04:55:02;13.35;;;12.23;;
67442;SDS011;54311;51.726;5.154;2023-04-01T04:57:27;13.48;;;12.23;;
67442;SDS011;54311;51.726;5.154;2023-04-01T04:59:52;13.48;;;12.38;;
67442;SDS011;54311;51.726;5.154;2023-04-01T05:02:18;13.93;;;12.63;;
67442;SDS011;54311;51.726;5.154;2023-04-01T05:04:43;14.43;;;13.00;;
67442;SDS011;54311;51.726;5.154;2023-04-01T05:07:08;15.10;;;13.52;;
67442;SDS011;54311;51.726;5.154;2023-04-01T05:09:34;14.95;;;13.43;;
67442;SDS011;54311;51.726;5.154;2023-04-01T05:11:59;14.85;;;13.50;;
67442;SDS011;54311;51.726;5.154;2023-04-01T05:14:25;17.17;;;15.40;;
67442;SDS011;54311;51.726;5.154;2023-04-01T05:16:50;17.50;;;15.63;;
67442;SDS011;54311;51.726;5.154;2023-04-01T05:19:15;19.30;;;16.27;;
67442;SDS011;54311;51.726;5.154;2023-04-01T05:21:41;19.48;;;16.85;;
67442;SDS011;54311;51.726;5.154;2023-04-01T05:24:09;21.60;;;18.77;;
67442;SDS011;54311;51.726;5.154;2023-04-01T05:26:35;25.85;;;18.42;;
67442;SDS011;54311;51.726;5.154;2023-04-01T05:29:01;25.63;;;18.70;;
67442;SDS011;54311;51.726;5.154;2023-04-01T05:31:27;24.30;;;19.83;;
67442;SDS011;54311;51.726;5.154;2023-04-01T05:33:52;25.75;;;18.33;;
67442;SDS011;54311;51.726;5.154;2023-04-01T05:36:19;30.38;;;20.85;;
67442;SDS011;54311;51.726;5.154;2023-04-01T05:38:44;23.42;;;17.95;;
67442;SDS011;54311;51.726;5.154;2023-04-01T05:41:11;26.48;;;17.70;;
67442;SDS011;54311;51.726;5.154;2023-04-01T05:43:37;32.78;;;20.10;;
67442;SDS011;54311;51.726;5.154;2023-04-01T05:46:03;29.45;;;19.35;;
67442;SDS011;54311;51.726;5.154;2023-04-01T05:48:29;29.75;;;19.27;;
67442;SDS011;54311;51.726;5.154;2023-04-01T05:50:55;27.70;;;17.63;;
67442;SDS011;54311;51.726;5.154;2023-04-01T05:53:20;33.55;;;20.38;;
67442;SDS011;54311;51.726;5.154;2023-04-01T05:55:45;35.15;;;21.30;;
67442;SDS011;54311;51.726;5.154;2023-04-01T05:58:11;35.50;;;21.00;;
67442;SDS011;54311;51.726;5.154;2023-04-01T06:00:36;33.53;;;20.98;;
67442;SDS011;54311;51.726;5.154;2023-04-01T06:03:01;37.63;;;20.83;;
67442;SDS011;54311;51.726;5.154;2023-04-01T06:05:28;31.73;;;20.23;;
67442;SDS011;54311;51.726;5.154;2023-04-01T06:07:58;34.08;;;19.67;;
67442;SDS011;54311;51.726;5.154;2023-04-01T06:10:44;37.83;;;20.20;;
67442;SDS011;54311;51.726;5.154;2023-04-01T06:13:25;39.95;;;22.85;;
67442;SDS011;54311;51.726;5.154;2023-04-01T06:21:36;33.77;;;19.93;;
67442;SDS011;54311;51.726;5.154;2023-04-01T06:27:07;34.47;;;21.30;;
67442;SDS011;54311;51.726;5.154;2023-04-01T06:29:44;29.48;;;20.30;;
67442;SDS011;54311;51.726;5.154;2023-04-01T06:32:19;28.98;;;21.00;;
67442;SDS011;54311;51.726;5.154;2023-04-01T06:45:41;31.35;;;20.98;;
67442;SDS011;54311;51.726;5.154;2023-04-01T06:51:07;25.70;;;17.13;;
67442;SDS011;54311;51.726;5.154;2023-04-01T06:53:57;25.55;;;18.25;;
67442;SDS011;54311;51.726;5.154;2023-04-01T06:56:25;27.10;;;18.55;;
67442;SDS011;54311;51.726;5.154;2023-04-01T07:01:29;22.63;;;18.08;;
67442;SDS011;54311;51.726;5.154;2023-04-01T07:03:58;31.98;;;20.45;;
67442;SDS011;54311;51.726;5.154;2023-04-01T07:06:35;32.30;;;19.38;;
67442;SDS011;54311;51.726;5.154;2023-04-01T07:09:09;26.38;;;16.52;;
67442;SDS011;54311;51.726;5.154;2023-04-01T07:11:37;23.73;;;16.30;;
67442;SDS011;54311;51.726;5.154;2023-04-01T07:14:22;22.13;;;16.65;;
67442;SDS011;54311;51.726;5.154;2023-04-01T07:20:31;24.73;;;16.10;;
67442;SDS011;54311;51.726;5.154;2023-04-01T07:22:44;32.45;;;18.65;;
67442;SDS011;54311;51.726;5.154;2023-04-01T07:25:13;28.95;;;19.00;;
67442;SDS011;54311;51.726;5.154;2023-04-01T07:27:40;28.02;;;18.08;;
67442;SDS011;54311;51.726;5.154;2023-04-01T07:30:13;29.10;;;19.05;;
67442;SDS011;54311;51.726;5.154;2023-04-01T07:32:42;34.25;;;23.92;;
67442;SDS011;54311;51.726;5.154;2023-04-01T07:40:39;32.60;;;21.42;;
67442;SDS011;54311;51.726;5.154;2023-04-01T07:43:19;28.77;;;21.35;;
67442;SDS011;54311;51.726;5.154;2023-04-01T07:51:27;37.45;;;23.60;;
67442;SDS011;54311;51.726;5.154;2023-04-01T07:59:24;30.92;;;22.15;;
67442;SDS011;54311;51.726;5.154;2023-04-01T08:02:10;34.42;;;22.38;;
67442;SDS011;54311;51.726;5.154;2023-04-01T08:11:17;32.50;;;21.80;;
67442;SDS011;54311;51.726;5.154;2023-04-01T08:13:43;32.70;;;23.92;;
67442;SDS011;54311;51.726;5.154;2023-04-01T08:16:23;29.77;;;21.85;;
67442;SDS011;54311;51.726;5.154;2023-04-01T08:18:59;29.52;;;21.30;;
67442;SDS011;54311;51.726;5.154;2023-04-01T08:21:32;27.80;;;21.40;;
67442;SDS011;54311;51.726;5.154;2023-04-01T08:24:05;27.63;;;20.35;;
67442;SDS011;54311;51.726;5.154;2023-04-01T08:26:44;25.77;;;20.98;;
67442;SDS011;54311;51.726;5.154;2023-04-01T08:29:14;32.65;;;21.60;;
67442;SDS011;54311;51.726;5.154;2023-04-01T08:31:51;23.67;;;19.23;;
67442;SDS011;54311;51.726;5.154;2023-04-01T08:34:37;27.48;;;20.75;;
67442;SDS011;54311;51.726;5.154;2023-04-01T09:08:17;18.30;;;14.68;;
67442;SDS011;54311;51.726;5.154;2023-04-01T09:11:08;18.05;;;15.13;;
67442;SDS011;54311;51.726;5.154;2023-04-01T09:14:03;16.65;;;14.38;;
67442;SDS011;54311;51.726;5.154;2023-04-01T09:40:47;12.68;;;11.43;;
67442;SDS011;54311;51.726;5.154;2023-04-01T09:43:30;14.85;;;12.48;;
67442;SDS011;54311;51.726;5.154;2023-04-01T09:46:16;12.82;;;11.50;;
67442;SDS011;54311;51.726;5.154;2023-04-01T09:51:38;15.73;;;14.13;;
67442;SDS011;54311;51.726;5.154;2023-04-01T10:06:11;16.58;;;12.95;;
67442;SDS011;54311;51.726;5.154;2023-04-01T10:21:56;16.40;;;13.32;;
67442;SDS011;54311;51.726;5.154;2023-04-01T10:24:29;13.30;;;12.00;;
67442;SDS011;54311;51.726;5.154;2023-04-01T10:32:37;15.75;;;14.05;;
67442;SDS011;54311;51.726;5.154;2023-04-01T10:35:35;17.25;;;13.88;;
67442;SDS011;54311;51.726;5.154;2023-04-01T10:38:26;15.43;;;13.70;;
67442;SDS011;54311;51.726;5.154;2023-04-01T11:14:26;12.88;;;10.27;;
67442;SDS011;54311;51.726;5.154;2023-04-01T11:35:52;9.07;;;8.18;;
67442;SDS011;54311;51.726;5.154;2023-04-01T11:38:35;9.55;;;8.05;;
67442;SDS011;54311;51.726;5.154;2023-04-01T11:55:10;10.10;;;9.30;;
67442;SDS011;54311;51.726;5.154;2023-04-01T12:12:39;11.67;;;10.00;;
67442;SDS011;54311;51.726;5.154;2023-04-01T12:15:53;10.48;;;9.15;;
67442;SDS011;54311;51.726;5.154;2023-04-01T12:21:20;8.80;;;7.88;;
67442;SDS011;54311;51.726;5.154;2023-04-01T12:42:55;7.32;;;6.93;;
67442;SDS011;54311;51.726;5.154;2023-04-01T12:45:29;8.07;;;7.40;;
67442;SDS011;54311;51.726;5.154;2023-04-01T12:53:41;8.38;;;7.15;;
67442;SDS011;54311;51.726;5.154;2023-04-01T12:56:14;7.50;;;6.95;;
67442;SDS011;54311;51.726;5.154;2023-04-01T13:09:45;10.57;;;9.57;;
67442;SDS011;54311;51.726;5.154;2023-04-01T13:15:14;11.10;;;10.00;;
67442;SDS011;54311;51.726;5.154;2023-04-01T13:23:19;9.32;;;8.52;;
67442;SDS011;54311;51.726;5.154;2023-04-01T13:26:07;10.32;;;9.13;;
67442;SDS011;54311;51.726;5.154;2023-04-01T13:28:53;9.82;;;8.85;;
67442;SDS011;54311;51.726;5.154;2023-04-01T13:39:32;10.45;;;9.55;;
67442;SDS011;54311;51.726;5.154;2023-04-01T13:42:16;11.35;;;9.85;;
67442;SDS011;54311;51.726;5.154;2023-04-01T13:44:51;12.77;;;11.57;;
67442;SDS011;54311;51.726;5.154;2023-04-01T13:47:37;11.30;;;9.75;;
67442;SDS011;54311;51.726;5.154;2023-04-01T14:11:45;16.73;;;11.32;;
67442;SDS011;54311;51.726;5.154;2023-04-01T14:48:23;21.97;;;13.43;;
67442;SDS011;54311;51.726;5.154;2023-04-01T14:50:53;14.70;;;13.23;;
67442;SDS011;54311;51.726;5.154;2023-04-01T14:55:58;14.70;;;12.13;;
67442;SDS011;54311;51.726;5.154;2023-04-01T14:58:27;17.20;;;14.30;;
67442;SDS011;54311;51.726;5.154;2023-04-01T15:03:37;15.60;;;13.80;;
67442;SDS011;54311;51.726;5.154;2023-04-01T15:06:15;17.80;;;13.63;;
67442;SDS011;54311;51.726;5.154;2023-04-01T15:19:33;18.02;;;14.98;;
67442;SDS011;54311;51.726;5.154;2023-04-01T15:22:23;16.70;;;13.57;;
67442;SDS011;54311;51.726;5.154;2023-04-01T15:27:40;17.60;;;14.27;;
67442;SDS011;54311;51.726;5.154;2023-04-01T15:33:01;16.58;;;14.73;;
67442;SDS011;54311;51.726;5.154;2023-04-01T15:40:52;15.00;;;12.45;;
67442;SDS011;54311;51.726;5.154;2023-04-01T15:48:58;13.93;;;12.43;;
67442;SDS011;54311;51.726;5.154;2023-04-01T15:54:00;12.93;;;11.73;;
67442;SDS011;54311;51.726;5.154;2023-04-01T15:59:51;11.65;;;10.55;;
67442;SDS011;54311;51.726;5.154;2023-04-01T16:08:20;12.05;;;11.10;;
67442;SDS011;54311;51.726;5.154;2023-04-01T16:13:55;13.13;;;11.95;;
67442;SDS011;54311;51.726;5.154;2023-04-01T16:16:43;14.20;;;12.80;;
67442;SDS011;54311;51.726;5.154;2023-04-01T16:24:43;12.82;;;11.73;;
67442;SDS011;54311;51.726;5.154;2023-04-01T16:27:16;16.10;;;13.70;;
67442;SDS011;54311;51.726;5.154;2023-04-01T16:29:49;15.30;;;13.32;;
67442;SDS011;54311;51.726;5.154;2023-04-01T16:32:21;14.73;;;13.23;;
67442;SDS011;54311;51.726;5.154;2023-04-01T16:34:56;13.50;;;12.27;;
67442;SDS011;54311;51.726;5.154;2023-04-01T16:40:26;12.05;;;10.95;;
67442;SDS011;54311;51.726;5.154;2023-04-01T16:43:35;12.85;;;11.90;;
67442;SDS011;54311;51.726;5.154;2023-04-01T16:51:32;10.75;;;9.90;;
67442;SDS011;54311;51.726;5.154;2023-04-01T16:56:38;11.32;;;10.52;;
67442;SDS011;54311;51.726;5.154;2023-04-01T17:01:52;7.00;;;6.55;;
67442;SDS011;54311;51.726;5.154;2023-04-01T17:07:10;7.30;;;6.90;;
67442;SDS011;54311;51.726;5.154;2023-04-01T17:09:45;9.03;;;8.43;;
67442;SDS011;54311;51.726;5.154;2023-04-01T17:20:32;7.93;;;7.43;;
67442;SDS011;54311;51.726;5.154;2023-04-01T17:23:12;7.85;;;7.40;;
67442;SDS011;54311;51.726;5.154;2023-04-01T17:25:48;7.18;;;6.72;;
67442;SDS011;54311;51.726;5.154;2023-04-01T17:28:46;7.97;;;7.47;;
67442;SDS011;54311;51.726;5.154;2023-04-01T17:36:45;7.25;;;6.85;;
67442;SDS011;54311;51.726;5.154;2023-04-01T17:44:52;8.95;;;8.35;;
67442;SDS011;54311;51.726;5.154;2023-04-01T18:00:47;10.38;;;9.57;;
67442;SDS011;54311;51.726;5.154;2023-04-01T18:03:36;10.02;;;9.32;;
67442;SDS011;54311;51.726;5.154;2023-04-01T18:09:01;11.82;;;10.90;;
67442;SDS011;54311;51.726;5.154;2023-04-01T18:17:55;11.02;;;10.18;;
67442;SDS011;54311;51.726;5.154;2023-04-01T18:20:33;11.02;;;10.13;;
67442;SDS011;54311;51.726;5.154;2023-04-01T18:25:38;12.32;;;11.23;;
67442;SDS011;54311;51.726;5.154;2023-04-01T18:30:31;12.25;;;11.13;;
67442;SDS011;54311;51.726;5.154;2023-04-01T18:38:54;13.20;;;11.98;;
67442;SDS011;54311;51.726;5.154;2023-04-01T18:44:10;13.25;;;11.93;;
67442;SDS011;54311;51.726;5.154;2023-04-01T18:46:44;14.80;;;13.50;;
67442;SDS011;54311;51.726;5.154;2023-04-01T18:49:21;14.13;;;13.02;;
67442;SDS011;54311;51.726;5.154;2023-04-01T18:51:55;14.75;;;13.55;;
67442;SDS011;54311;51.726;5.154;2023-04-01T18:57:10;13.18;;;11.98;;
67442;SDS011;54311;51.726;5.154;2023-04-01T18:59:50;12.60;;;11.70;;
67442;SDS011;54311;51.726;5.154;2023-04-01T19:05:17;12.63;;;11.73;;
67442;SDS011;54311;51.726;5.154;2023-04-01T19:07:49;13.35;;;12.35;;
67442;SDS011;54311;51.726;5.154;2023-04-01T19:12:48;12.27;;;11.32;;
67442;SDS011;54311;51.726;5.154;2023-04-01T19:15:20;11.82;;;10.90;;
67442;SDS011;54311;51.726;5.154;2023-04-01T19:20:37;11.77;;;10.90;;
67442;SDS011;54311;51.726;5.154;2023-04-01T19:26:00;11.23;;;10.43;;
67442;SDS011;54311;51.726;5.154;2023-04-01T19:34:02;11.25;;;10.48;;
67442;SDS011;54311;51.726;5.154;2023-04-01T19:36:41;11.35;;;10.60;;
67442;SDS011;54311;51.726;5.154;2023-04-01T19:47:04;12.15;;;11.23;;
67442;SDS011;54311;51.726;5.154;2023-04-01T19:52:31;10.73;;;9.95;;
67442;SDS011;54311;51.726;5.154;2023-04-01T20:05:45;12.63;;;11.63;;
67442;SDS011;54311;51.726;5.154;2023-04-01T20:24:58;12.93;;;11.93;;
67442;SDS011;54311;51.726;5.154;2023-04-01T20:27:27;11.98;;;10.98;;
67442;SDS011;54311;51.726;5.154;2023-04-01T20:35:46;10.07;;;9.45;;
67442;SDS011;54311;51.726;5.154;2023-04-01T20:41:49;10.93;;;9.93;;
67442;SDS011;54311;51.726;5.154;2023-04-01T20:50:00;10.02;;;9.43;;
67442;SDS011;54311;51.726;5.154;2023-04-01T20:52:32;9.48;;;8.93;;
67442;SDS011;54311;51.726;5.154;2023-04-01T20:55:08;9.68;;;9.07;;
67442;SDS011;54311;51.726;5.154;2023-04-01T20:57:56;12.18;;;11.25;;
67442;SDS011;54311;51.726;5.154;2023-04-01T21:00:52;10.82;;;9.95;;
67442;SDS011;54311;51.726;5.154;2023-04-01T21:06:04;11.25;;;10.35;;
67442;SDS011;54311;51.726;5.154;2023-04-01T21:11:41;12.23;;;11.38;;
67442;SDS011;54311;51.726;5.154;2023-04-01T21:14:33;11.88;;;11.15;;
67442;SDS011;54311;51.726;5.154;2023-04-01T21:23:38;10.43;;;9.55;;
67442;SDS011;54311;51.726;5.154;2023-04-01T21:26:04;11.27;;;10.38;;
67442;SDS011;54311;51.726;5.154;2023-04-01T21:37:08;10.95;;;10.25;;
67442;SDS011;54311;51.726;5.154;2023-04-01T21:51:14;12.98;;;11.68;;
67442;SDS011;54311;51.726;5.154;2023-04-01T21:56:21;14.77;;;13.68;;
67442;SDS011;54311;51.726;5.154;2023-04-01T22:07:17;16.67;;;15.38;;
67442;SDS011;54311;51.726;5.154;2023-04-01T22:23:46;16.95;;;15.32;;
67442;SDS011;54311;51.726;5.154;2023-04-01T22:26:18;16.20;;;14.80;;
67442;SDS011;54311;51.726;5.154;2023-04-01T22:31:26;17.60;;;16.30;;
67442;SDS011;54311;51.726;5.154;2023-04-01T22:33:58;14.38;;;13.18;;
67442;SDS011;54311;51.726;5.154;2023-04-01T22:36:45;14.60;;;13.48;;
67442;SDS011;54311;51.726;5.154;2023-04-01T22:39:35;14.50;;;13.40;;
67442;SDS011;54311;51.726;5.154;2023-04-01T22:50:40;14.03;;;13.00;;
67442;SDS011;54311;51.726;5.154;2023-04-01T22:55:38;12.07;;;11.18;;
67442;SDS011;54311;51.726;5.154;2023-04-01T22:58:05;13.95;;;12.60;;
67442;SDS011;54311;51.726;5.154;2023-04-01T23:00:35;13.68;;;12.57;;
67442;SDS011;54311;51.726;5.154;2023-04-01T23:05:46;14.82;;;13.52;;
67442;SDS011;54311;51.726;5.154;2023-04-01T23:11:02;15.45;;;14.15;;
67442;SDS011;54311;51.726;5.154;2023-04-01T23:13:46;15.25;;;14.13;;
67442;SDS011;54311;51.726;5.154;2023-04-01T23:16:19;14.63;;;13.52;;
67442;SDS011;54311;51.726;5.154;2023-04-01T23:19:02;15.40;;;14.20;;
67442;SDS011;54311;51.726;5.154;2023-04-01T23:29:42;16.02;;;14.73;;
67442;SDS011;54311;51.726;5.154;2023-04-01T23:32:22;15.00;;;13.80;;
67442;SDS011;54311;51.726;5.154;2023-04-01T23:34:51;13.93;;;12.88;;
67442;SDS011;54311;51.726;5.154;2023-04-01T23:37:18;14.73;;;13.43;;
67442;SDS011;54311;51.726;5.154;2023-04-01T23:39:45;18.10;;;16.70;;
67442;SDS011;54311;51.726;5.154;2023-04-01T23:42:28;15.38;;;14.18;;
67442;SDS011;54311;51.726;5.154;2023-04-01T23:44:56;14.82;;;13.70;;
67442;SDS011;54311;51.726;5.154;2023-04-01T23:47:24;15.25;;;13.80;;
67442;SDS011;54311;51.726;5.154;2023-04-01T23:49:55;15.18;;;13.98;;
67442;SDS011;54311;51.726;5.154;2023-04-01T23:52:23;17.02;;;15.52;;
67442;SDS011;54311;51.726;5.154;2023-04-01T23:54:55;15.75;;;14.45;;
67442;SDS011;54311;51.726;5.154;2023-04-01T23:57:33;17.08;;;15.57;;
